createdAt,value
2018-05-02T00:00:00.649Z,10.70
2018-05-02T00:01:00.646Z,9.80
2018-05-02T00:02:00.642Z,9.40
2018-05-02T00:03:00.626Z,10.60
2018-05-02T00:04:00.619Z,10.30
2018-05-02T00:05:00.623Z,10.20
2018-05-02T00:06:00.612Z,9.80
2018-05-02T00:07:00.599Z,9.90
2018-05-02T00:08:00.593Z,10.30
2018-05-02T00:09:00.588Z,10.40
2018-05-02T00:10:00.577Z,9.70
2018-05-02T00:11:00.571Z,9.90
2018-05-02T00:12:00.563Z,10.10
2018-05-02T00:13:00.556Z,10.30
2018-05-02T00:14:00.550Z,9.80
2018-05-02T00:15:00.548Z,11.10
2018-05-02T00:16:00.539Z,9.90
2018-05-02T00:17:00.527Z,10.30
2018-05-02T00:18:00.574Z,10.20
2018-05-02T00:19:00.517Z,10.40
2018-05-02T00:20:00.511Z,10.80
2018-05-02T00:21:00.498Z,11.10
2018-05-02T00:22:00.492Z,10.20
2018-05-02T00:23:00.485Z,10.20
2018-05-02T00:24:00.478Z,9.70
2018-05-02T00:25:00.470Z,9.90
2018-05-02T00:26:00.463Z,9.50
2018-05-02T00:27:00.456Z,10.20
2018-05-02T00:28:00.449Z,9.90
2018-05-02T00:29:00.441Z,10.00
2018-05-02T00:30:00.434Z,10.00
2018-05-02T00:31:00.427Z,10.00
2018-05-02T00:32:00.422Z,10.20
2018-05-02T00:33:00.416Z,10.30
2018-05-02T00:34:00.504Z,9.70
2018-05-02T00:35:00.398Z,10.00
2018-05-02T00:36:00.391Z,10.20
2018-05-02T00:37:00.387Z,9.90
2018-05-02T00:38:00.380Z,9.90
2018-05-02T00:39:00.374Z,10.10
2018-05-02T00:40:00.362Z,10.10
2018-05-02T00:41:00.354Z,10.00
2018-05-02T00:42:00.350Z,9.80
2018-05-02T00:43:00.340Z,10.10
2018-05-02T00:44:00.336Z,10.20
2018-05-02T00:45:00.410Z,10.40
2018-05-02T00:46:00.324Z,9.80
2018-05-02T00:47:00.312Z,10.00
2018-05-02T00:48:00.305Z,11.20
2018-05-02T00:49:00.297Z,11.00
2018-05-02T00:50:00.289Z,10.10
2018-05-02T00:51:00.290Z,10.20
2018-05-02T00:52:00.275Z,10.00
2018-05-02T00:53:00.267Z,10.00
2018-05-02T00:54:00.260Z,10.60
2018-05-02T00:55:00.253Z,10.40
2018-05-02T00:56:00.246Z,10.40
2018-05-02T00:57:00.242Z,9.90
2018-05-02T00:58:00.236Z,10.00
2018-05-02T00:59:00.229Z,10.40
2018-05-02T01:00:00.222Z,10.70
2018-05-02T01:01:00.210Z,10.40
2018-05-02T01:02:00.200Z,11.00
2018-05-02T01:03:00.193Z,10.20
2018-05-02T01:04:00.188Z,10.50
2018-05-02T01:05:00.184Z,10.20
2018-05-02T01:06:00.172Z,10.70
2018-05-02T01:07:00.164Z,10.10
2018-05-02T01:08:00.162Z,10.50
2018-05-02T01:09:00.156Z,10.60
2018-05-02T01:10:00.151Z,11.20
2018-05-02T01:11:00.138Z,11.50
2018-05-02T01:12:00.137Z,11.80
2018-05-02T01:13:00.122Z,10.80
2018-05-02T01:14:00.113Z,11.10
2018-05-02T01:15:00.105Z,11.30
2018-05-02T01:16:00.098Z,10.40
2018-05-02T01:17:00.095Z,9.30
2018-05-02T01:18:00.087Z,10.00
2018-05-02T01:19:00.075Z,10.30
2018-05-02T01:20:00.068Z,10.10
2018-05-02T01:21:00.061Z,11.10
2018-05-02T01:22:00.052Z,10.30
2018-05-02T01:23:00.046Z,10.50
2018-05-02T01:24:00.042Z,10.30
2018-05-02T01:25:00.031Z,10.00
2018-05-02T01:26:00.022Z,10.40
2018-05-02T01:27:00.016Z,10.10
2018-05-02T01:28:00.008Z,9.80
2018-05-02T01:29:00.005Z,10.00
2018-05-02T01:29:59.997Z,10.70
2018-05-02T01:30:59.989Z,10.40
2018-05-02T01:31:59.982Z,10.90
2018-05-02T01:32:59.969Z,11.30
2018-05-02T01:33:59.962Z,9.90
2018-05-02T01:34:59.955Z,9.80
2018-05-02T01:35:59.947Z,10.40
2018-05-02T01:36:59.939Z,10.40
2018-05-02T01:37:59.932Z,9.70
2018-05-02T01:38:59.924Z,10.30
2018-05-02T01:39:59.917Z,9.60
2018-05-02T01:40:59.910Z,9.60
2018-05-02T01:41:59.902Z,10.00
2018-05-02T01:42:59.898Z,10.00
2018-05-02T01:43:59.893Z,11.00
2018-05-02T01:44:59.878Z,10.10
2018-05-02T01:45:59.871Z,9.80
2018-05-02T01:46:59.864Z,10.40
2018-05-02T01:47:59.858Z,11.10
2018-05-02T01:48:59.848Z,10.50
2018-05-02T01:49:59.840Z,10.40
2018-05-02T01:50:59.838Z,10.80
2018-05-02T01:51:59.830Z,11.30
2018-05-02T01:52:59.819Z,10.30
2018-05-02T01:53:59.810Z,10.40
2018-05-02T01:54:59.806Z,10.60
2018-05-02T01:55:59.800Z,10.00
2018-05-02T01:56:59.788Z,11.60
2018-05-02T01:57:59.780Z,11.50
2018-05-02T01:58:59.772Z,10.50
2018-05-02T01:59:59.765Z,11.10
2018-05-02T02:00:59.756Z,10.30
2018-05-02T02:01:59.749Z,10.50
2018-05-02T02:02:59.742Z,10.50
2018-05-02T02:03:59.734Z,10.30
2018-05-02T02:04:59.725Z,10.70
2018-05-02T02:05:59.717Z,10.70
2018-05-02T02:06:59.710Z,10.60
2018-05-02T02:07:59.704Z,10.20
2018-05-02T02:08:59.700Z,10.50
2018-05-02T02:09:59.691Z,10.10
2018-05-02T02:10:59.679Z,9.50
2018-05-02T02:11:59.678Z,9.80
2018-05-02T02:12:59.667Z,10.50
2018-05-02T02:13:59.663Z,9.90
2018-05-02T02:14:59.648Z,10.00
2018-05-02T02:15:59.640Z,9.60
2018-05-02T02:16:59.632Z,9.90
2018-05-02T02:17:59.625Z,9.40
2018-05-02T02:18:59.617Z,9.70
2018-05-02T02:19:59.609Z,10.20
2018-05-02T02:20:59.609Z,9.70
2018-05-02T02:21:59.595Z,10.40
2018-05-02T02:22:59.590Z,9.70
2018-05-02T02:23:59.582Z,10.70
2018-05-02T02:24:59.569Z,11.10
2018-05-02T02:25:59.560Z,10.10
2018-05-02T02:26:59.558Z,9.90
2018-05-02T02:27:59.552Z,10.80
2018-05-02T02:28:59.541Z,9.70
2018-05-02T02:29:59.530Z,10.00
2018-05-02T02:30:59.523Z,10.40
2018-05-02T02:31:59.516Z,9.50
2018-05-02T02:32:59.506Z,9.40
2018-05-02T02:33:59.505Z,11.00
2018-05-02T02:34:59.491Z,10.00
2018-05-02T02:35:59.484Z,10.30
2018-05-02T02:36:59.475Z,9.80
2018-05-02T02:37:59.469Z,10.80
2018-05-02T02:38:59.460Z,9.60
2018-05-02T02:39:59.451Z,10.10
2018-05-02T02:40:59.447Z,10.20
2018-05-02T02:41:59.439Z,11.20
2018-05-02T02:42:59.427Z,9.90
2018-05-02T02:43:59.422Z,10.30
2018-05-02T02:44:59.415Z,10.60
2018-05-02T02:45:59.407Z,10.30
2018-05-02T02:46:59.395Z,10.40
2018-05-02T02:47:59.389Z,11.20
2018-05-02T02:48:59.384Z,11.20
2018-05-02T02:49:59.370Z,11.10
2018-05-02T02:50:59.367Z,11.30
2018-05-02T02:51:59.360Z,11.00
2018-05-02T02:52:59.346Z,11.10
2018-05-02T02:53:59.339Z,11.20
2018-05-02T02:54:59.335Z,11.10
2018-05-02T02:55:59.330Z,11.70
2018-05-02T02:56:59.322Z,10.60
2018-05-02T02:57:59.307Z,11.40
2018-05-02T02:58:59.304Z,11.30
2018-05-02T02:59:59.297Z,11.70
2018-05-02T03:00:59.282Z,11.20
2018-05-02T03:01:59.277Z,11.00
2018-05-02T03:02:59.273Z,11.70
2018-05-02T03:03:59.259Z,12.30
2018-05-02T03:04:59.250Z,11.40
2018-05-02T03:05:59.242Z,11.50
2018-05-02T03:06:59.235Z,12.20
2018-05-02T03:07:59.228Z,11.20
2018-05-02T03:08:59.220Z,11.00
2018-05-02T03:09:59.211Z,11.90
2018-05-02T03:10:59.204Z,12.20
2018-05-02T03:11:59.195Z,11.90
2018-05-02T03:12:59.194Z,10.30
2018-05-02T03:13:59.182Z,10.60
2018-05-02T03:14:59.169Z,11.30
2018-05-02T03:15:59.162Z,11.00
2018-05-02T03:16:59.157Z,10.40
2018-05-02T03:17:59.150Z,10.40
2018-05-02T03:18:59.137Z,10.40
2018-05-02T03:19:59.129Z,9.80
2018-05-02T03:20:59.121Z,10.60
2018-05-02T03:21:59.113Z,11.30
2018-05-02T03:22:59.105Z,10.80
2018-05-02T03:23:59.096Z,11.60
2018-05-02T03:24:59.088Z,12.00
2018-05-02T03:25:59.080Z,10.80
2018-05-02T03:26:59.127Z,11.00
2018-05-02T03:27:59.067Z,11.20
2018-05-02T03:28:59.054Z,11.70
2018-05-02T03:29:59.046Z,10.50
2018-05-02T03:30:59.044Z,10.20
2018-05-02T03:31:59.035Z,11.00
2018-05-02T03:32:59.025Z,10.30
2018-05-02T03:33:59.013Z,10.80
2018-05-02T03:34:59.005Z,10.10
2018-05-02T03:35:58.998Z,10.40
2018-05-02T03:36:58.988Z,10.60
2018-05-02T03:37:58.980Z,10.70
2018-05-02T03:38:58.973Z,10.80
2018-05-02T03:39:58.965Z,10.50
2018-05-02T03:40:58.962Z,10.50
2018-05-02T03:41:58.948Z,10.10
2018-05-02T03:42:58.940Z,11.80
2018-05-02T03:43:58.930Z,11.70
2018-05-02T03:44:58.927Z,10.20
2018-05-02T03:45:58.919Z,10.20
2018-05-02T03:46:58.906Z,11.50
2018-05-02T03:47:58.899Z,10.80
2018-05-02T03:48:58.893Z,10.20
2018-05-02T03:49:58.885Z,11.00
2018-05-02T03:50:58.872Z,11.00
2018-05-02T03:51:58.865Z,10.20
2018-05-02T03:52:58.938Z,11.40
2018-05-02T03:53:58.848Z,10.90
2018-05-02T03:54:58.840Z,11.50
2018-05-02T03:55:58.831Z,11.30
2018-05-02T03:56:58.826Z,11.30
2018-05-02T03:57:58.819Z,10.90
2018-05-02T03:58:58.807Z,10.10
2018-05-02T03:59:58.801Z,10.90
2018-05-02T04:00:58.790Z,10.30
2018-05-02T04:01:58.784Z,10.50
2018-05-02T04:02:58.774Z,10.10
2018-05-02T04:03:58.766Z,11.10
2018-05-02T04:04:58.757Z,10.50
2018-05-02T04:05:58.749Z,10.80
2018-05-02T04:06:58.741Z,11.50
2018-05-02T04:07:58.733Z,10.50
2018-05-02T04:08:58.729Z,11.20
2018-05-02T04:09:58.720Z,11.20
2018-05-02T04:10:58.713Z,10.60
2018-05-02T04:11:58.704Z,10.30
2018-05-02T04:12:58.691Z,10.70
2018-05-02T04:13:58.683Z,12.30
2018-05-02T04:14:58.675Z,11.40
2018-05-02T04:15:58.669Z,10.70
2018-05-02T04:16:58.658Z,10.80
2018-05-02T04:17:58.651Z,12.00
2018-05-02T04:18:58.643Z,11.60
2018-05-02T04:19:58.636Z,11.50
2018-05-02T04:20:58.626Z,11.80
2018-05-02T04:21:58.619Z,11.20
2018-05-02T04:22:58.615Z,11.60
2018-05-02T04:23:58.607Z,11.30
2018-05-02T04:24:58.593Z,11.50
2018-05-02T04:25:58.614Z,12.70
2018-05-02T04:26:58.578Z,11.90
2018-05-02T04:27:58.570Z,12.00
2018-05-02T04:28:58.565Z,11.90
2018-05-02T04:29:58.561Z,10.50
2018-05-02T04:30:58.547Z,11.20
2018-05-02T04:31:58.538Z,11.00
2018-05-02T04:32:58.528Z,11.30
2018-05-02T04:33:58.521Z,12.30
2018-05-02T04:34:58.514Z,11.40
2018-05-02T04:35:58.504Z,11.00
2018-05-02T04:36:58.496Z,11.50
2018-05-02T04:37:58.488Z,11.60
2018-05-02T04:38:58.479Z,10.90
2018-05-02T04:39:58.473Z,10.30
2018-05-02T04:40:58.544Z,12.60
2018-05-02T04:41:58.460Z,11.80
2018-05-02T04:42:58.454Z,11.60
2018-05-02T04:43:58.447Z,10.70
2018-05-02T04:44:58.433Z,11.40
2018-05-02T04:45:58.426Z,11.20
2018-05-02T04:46:58.421Z,12.50
2018-05-02T04:47:58.411Z,11.70
2018-05-02T04:48:58.404Z,11.90
2018-05-02T04:49:58.396Z,11.20
2018-05-02T04:50:58.389Z,12.20
2018-05-02T04:51:58.383Z,12.00
2018-05-02T04:52:58.377Z,12.20
2018-05-02T04:53:58.370Z,11.80
2018-05-02T04:54:58.367Z,10.90
2018-05-02T04:55:58.363Z,11.80
2018-05-02T04:56:58.352Z,11.40
2018-05-02T04:57:58.344Z,11.20
2018-05-02T04:58:58.341Z,11.80
2018-05-02T04:59:58.336Z,11.00
2018-05-02T05:00:58.327Z,12.00
2018-05-02T05:01:58.323Z,11.30
2018-05-02T05:02:58.336Z,11.60
2018-05-02T05:03:58.316Z,12.60
2018-05-02T05:04:58.307Z,12.70
2018-05-02T05:05:58.302Z,12.30
2018-05-02T05:06:58.303Z,12.60
2018-05-02T05:07:58.297Z,13.10
2018-05-02T05:08:58.288Z,16.60
2018-05-02T05:09:58.283Z,15.90
2018-05-02T05:10:58.281Z,16.60
2018-05-02T05:11:58.277Z,18.00
2018-05-02T05:12:58.274Z,95.70
2018-05-02T05:13:58.272Z,21.80
2018-05-02T05:14:58.267Z,17.70
2018-05-02T05:15:58.264Z,18.70
2018-05-02T05:16:58.259Z,16.60
2018-05-02T05:17:58.256Z,22.10
2018-05-02T05:18:58.254Z,16.30
2018-05-02T05:19:58.252Z,16.30
2018-05-02T05:20:58.253Z,17.90
2018-05-02T05:21:58.250Z,18.40
2018-05-02T05:22:58.244Z,18.20
2018-05-02T05:23:58.243Z,16.40
2018-05-02T05:24:58.245Z,17.80
2018-05-02T05:25:58.244Z,22.30
2018-05-02T05:26:58.237Z,26.80
2018-05-02T05:27:58.236Z,31.10
2018-05-02T05:28:58.236Z,30.80
2018-05-02T05:29:58.233Z,29.70
2018-05-02T05:30:58.232Z,347.00
2018-05-02T05:31:58.232Z,794.10
2018-05-02T05:32:58.230Z,163.50
2018-05-02T05:33:58.230Z,32.30
2018-05-02T05:34:58.234Z,19.80
2018-05-02T05:35:58.233Z,16.30
2018-05-02T05:36:58.231Z,14.50
2018-05-02T05:37:58.228Z,14.00
2018-05-02T05:38:58.233Z,13.80
2018-05-02T05:39:58.232Z,13.10
2018-05-02T05:40:58.227Z,13.20
2018-05-02T05:41:58.229Z,13.20
2018-05-02T05:42:58.229Z,13.40
2018-05-02T05:43:58.231Z,12.90
2018-05-02T05:44:58.229Z,12.70
2018-05-02T05:45:58.230Z,12.60
2018-05-02T05:46:58.231Z,12.90
2018-05-02T05:47:58.232Z,12.30
2018-05-02T05:48:58.233Z,13.00
2018-05-02T05:49:58.233Z,12.90
2018-05-02T05:50:58.235Z,14.00
2018-05-02T05:51:58.236Z,13.80
2018-05-02T05:52:58.241Z,14.60
2018-05-02T05:53:58.260Z,14.40
2018-05-02T05:54:58.242Z,14.10
2018-05-02T05:55:58.243Z,13.50
2018-05-02T05:56:58.249Z,13.50
2018-05-02T05:57:58.249Z,13.80
2018-05-02T05:58:58.259Z,13.50
2018-05-02T05:59:58.251Z,14.10
2018-05-02T06:00:58.251Z,14.70
2018-05-02T06:01:58.253Z,14.10
2018-05-02T06:02:58.257Z,13.60
2018-05-02T06:03:58.259Z,13.70
2018-05-02T06:04:58.266Z,13.50
2018-05-02T06:05:58.267Z,14.30
2018-05-02T06:06:58.266Z,14.10
2018-05-02T06:07:58.270Z,13.90
2018-05-02T06:08:58.271Z,13.60
2018-05-02T06:09:58.275Z,13.40
2018-05-02T06:10:58.277Z,13.80
2018-05-02T06:11:58.280Z,13.90
2018-05-02T06:12:58.285Z,13.40
2018-05-02T06:13:58.285Z,13.80
2018-05-02T06:14:58.288Z,13.20
2018-05-02T06:15:58.292Z,13.40
2018-05-02T06:16:58.298Z,13.40
2018-05-02T06:17:58.302Z,13.20
2018-05-02T06:18:58.306Z,13.10
2018-05-02T06:19:58.308Z,13.30
2018-05-02T06:20:58.306Z,13.20
2018-05-02T06:21:58.310Z,13.30
2018-05-02T06:22:58.314Z,13.70
2018-05-02T06:23:58.318Z,12.50
2018-05-02T06:24:58.321Z,13.20
2018-05-02T06:25:58.326Z,12.70
2018-05-02T06:26:58.329Z,12.70
2018-05-02T06:27:58.333Z,12.70
2018-05-02T06:28:58.338Z,13.00
2018-05-02T06:29:58.340Z,13.20
2018-05-02T06:30:58.349Z,13.20
2018-05-02T06:31:58.423Z,12.80
2018-05-02T06:32:58.353Z,11.40
2018-05-02T06:33:58.358Z,12.40
2018-05-02T06:34:58.362Z,12.70
2018-05-02T06:35:58.367Z,11.80
2018-05-02T06:36:58.379Z,13.40
2018-05-02T06:37:58.573Z,12.10
2018-05-02T06:38:58.381Z,10.70
2018-05-02T06:39:58.388Z,11.10
2018-05-02T06:40:58.392Z,10.90
2018-05-02T06:41:58.396Z,10.20
2018-05-02T06:42:58.401Z,10.60
2018-05-02T06:43:58.408Z,10.50
2018-05-02T06:44:58.412Z,11.40
2018-05-02T06:45:58.419Z,11.20
2018-05-02T06:46:58.423Z,15.10
2018-05-02T06:47:58.429Z,15.00
2018-05-02T06:48:58.439Z,17.30
2018-05-02T06:49:58.450Z,16.00
2018-05-02T06:50:58.451Z,17.90
2018-05-02T06:51:58.459Z,18.50
2018-05-02T06:52:58.459Z,25.70
2018-05-02T06:53:58.467Z,30.10
2018-05-02T06:54:58.473Z,47.20
2018-05-02T06:55:58.480Z,51.50
2018-05-02T06:56:58.485Z,67.90
2018-05-02T06:57:58.492Z,74.80
2018-05-02T06:58:58.500Z,94.00
2018-05-02T06:59:58.508Z,229.50
2018-05-02T07:00:58.631Z,172.00
2018-05-02T07:01:58.521Z,279.20
2018-05-02T07:02:58.533Z,346.60
2018-05-02T07:03:58.538Z,361.10
2018-05-02T07:04:58.542Z,268.00
2018-05-02T07:05:58.549Z,388.20
2018-05-02T07:06:58.556Z,467.80
2018-05-02T07:07:58.564Z,556.00
2018-05-02T07:08:58.573Z,586.20
2018-05-02T07:09:58.578Z,529.70
2018-05-02T07:10:58.586Z,590.60
2018-05-02T07:11:58.596Z,443.00
2018-05-02T07:12:58.606Z,497.40
2018-05-02T07:13:58.615Z,744.90
2018-05-02T07:14:58.617Z,710.60
2018-05-02T07:15:58.625Z,808.20
2018-05-02T07:16:58.637Z,53.90
2018-05-02T07:17:58.644Z,10.80
2018-05-02T07:18:58.650Z,10.50
2018-05-02T07:19:58.657Z,9.90
2018-05-02T07:20:58.664Z,10.10
2018-05-02T07:21:58.673Z,9.20
2018-05-02T07:22:58.682Z,9.10
2018-05-02T07:23:58.747Z,9.40
2018-05-02T07:24:58.701Z,8.80
2018-05-02T07:25:58.708Z,9.00
2018-05-02T07:26:58.722Z,8.30
2018-05-02T07:27:58.731Z,9.20
2018-05-02T07:28:58.737Z,8.10
2018-05-02T07:29:58.744Z,8.10
2018-05-02T07:30:58.757Z,8.00
2018-05-02T07:31:58.766Z,7.60
2018-05-02T07:32:58.953Z,7.70
2018-05-02T07:33:58.781Z,8.20
2018-05-02T07:34:58.791Z,7.60
2018-05-02T07:35:58.800Z,7.80
2018-05-02T07:36:58.810Z,7.50
2018-05-02T07:37:58.821Z,7.20
2018-05-02T07:38:58.831Z,7.70
2018-05-02T07:39:58.840Z,8.00
2018-05-02T07:40:58.849Z,7.70
2018-05-02T07:41:58.862Z,7.50
2018-05-02T07:42:58.872Z,7.40
2018-05-02T07:43:58.882Z,7.40
2018-05-02T07:44:58.898Z,7.70
2018-05-02T07:45:58.907Z,7.70
2018-05-02T07:46:58.991Z,8.40
2018-05-02T07:47:58.925Z,7.80
2018-05-02T07:48:58.941Z,7.60
2018-05-02T07:49:58.952Z,7.40
2018-05-02T07:50:58.959Z,8.00
2018-05-02T07:51:58.971Z,7.30
2018-05-02T07:52:58.996Z,7.70
2018-05-02T07:53:58.993Z,7.40
2018-05-02T07:54:59.005Z,7.10
2018-05-02T07:55:59.022Z,7.10
2018-05-02T07:56:59.032Z,7.40
2018-05-02T07:57:59.043Z,7.30
2018-05-02T07:58:59.058Z,7.40
2018-05-02T07:59:59.069Z,7.10
2018-05-02T08:00:59.077Z,7.10
2018-05-02T08:01:59.091Z,6.80
2018-05-02T08:02:59.106Z,7.40
2018-05-02T08:03:59.119Z,6.20
2018-05-02T08:04:59.127Z,6.50
2018-05-02T08:05:59.140Z,6.80
2018-05-02T08:06:59.153Z,6.80
2018-05-02T08:07:59.167Z,7.20
2018-05-02T08:08:59.178Z,6.90
2018-05-02T08:09:59.195Z,7.50
2018-05-02T08:10:59.292Z,7.70
2018-05-02T08:11:59.223Z,7.10
2018-05-02T08:12:59.231Z,6.90
2018-05-02T08:13:59.245Z,7.10
2018-05-02T08:14:59.263Z,6.40
2018-05-02T08:15:59.273Z,6.60
2018-05-02T08:16:59.285Z,6.40
2018-05-02T08:17:59.299Z,6.30
2018-05-02T08:18:59.314Z,6.60
2018-05-02T08:19:59.326Z,6.70
2018-05-02T08:20:59.339Z,6.10
2018-05-02T08:21:59.360Z,6.50
2018-05-02T08:22:59.370Z,6.20
2018-05-02T08:23:59.384Z,6.00
2018-05-02T08:24:59.394Z,5.90
2018-05-02T08:25:59.411Z,7.00
2018-05-02T08:26:59.421Z,6.50
2018-05-02T08:27:59.435Z,6.80
2018-05-02T08:28:59.452Z,6.20
2018-05-02T08:29:59.466Z,6.50
2018-05-02T08:30:59.477Z,5.80
2018-05-02T08:31:59.491Z,5.60
2018-05-02T08:32:59.545Z,6.10
2018-05-02T08:33:59.518Z,6.10
2018-05-02T08:34:59.532Z,4.70
2018-05-02T08:35:59.547Z,5.70
2018-05-02T08:36:59.561Z,6.10
2018-05-02T08:37:59.577Z,6.20
2018-05-02T08:38:59.669Z,4.70
2018-05-02T08:39:59.609Z,5.80
2018-05-02T08:40:59.623Z,4.90
2018-05-02T08:41:59.638Z,4.60
2018-05-02T08:42:59.653Z,5.00
2018-05-02T08:43:59.668Z,4.90
2018-05-02T08:44:59.678Z,4.70
2018-05-02T08:45:59.704Z,5.40
2018-05-02T08:46:59.709Z,5.80
2018-05-02T08:47:59.724Z,5.40
2018-05-02T08:48:59.739Z,6.20
2018-05-02T08:49:59.811Z,5.40
2018-05-02T08:50:59.771Z,6.00
2018-05-02T08:51:59.789Z,5.20
2018-05-02T08:52:59.800Z,5.70
2018-05-02T08:53:59.816Z,5.30
2018-05-02T08:54:59.836Z,5.20
2018-05-02T08:55:59.856Z,5.40
2018-05-02T08:56:59.863Z,6.30
2018-05-02T08:57:59.879Z,4.80
2018-05-02T08:58:59.897Z,5.00
2018-05-02T08:59:59.911Z,5.30
2018-05-02T09:00:59.930Z,6.10
2018-05-02T09:01:59.948Z,5.70
2018-05-02T09:02:59.958Z,6.30
2018-05-02T09:03:59.974Z,6.20
2018-05-02T09:04:59.989Z,7.00
2018-05-02T09:06:00.005Z,8.00
2018-05-02T09:07:00.020Z,7.30
2018-05-02T09:08:00.034Z,7.30
2018-05-02T09:09:00.128Z,8.60
2018-05-02T09:10:00.062Z,8.70
2018-05-02T09:11:00.074Z,9.70
2018-05-02T09:12:00.089Z,9.30
2018-05-02T09:13:00.105Z,9.00
2018-05-02T09:14:00.121Z,9.40
2018-05-02T09:15:00.128Z,8.60
2018-05-02T09:16:00.140Z,8.70
2018-05-02T09:17:00.152Z,8.40
2018-05-02T09:18:00.164Z,7.40
2018-05-02T09:19:00.177Z,7.90
2018-05-02T09:20:00.191Z,7.60
2018-05-02T09:21:00.208Z,7.60
2018-05-02T09:22:00.219Z,7.80
2018-05-02T09:23:00.229Z,8.40
2018-05-02T09:24:00.240Z,7.90
2018-05-02T09:25:00.254Z,8.00
2018-05-02T09:26:00.269Z,8.30
2018-05-02T09:27:00.275Z,8.20
2018-05-02T09:28:00.288Z,8.10
2018-05-02T09:29:00.299Z,9.00
2018-05-02T09:30:00.311Z,9.20
2018-05-02T09:31:00.323Z,8.10
2018-05-02T09:32:00.336Z,8.20
2018-05-02T09:33:00.352Z,8.60
2018-05-02T09:34:00.360Z,8.80
2018-05-02T09:35:00.376Z,9.10
2018-05-02T09:36:00.390Z,8.40
2018-05-02T09:37:00.396Z,8.60
2018-05-02T09:38:00.411Z,8.20
2018-05-02T09:39:00.425Z,9.00
2018-05-02T09:40:00.438Z,10.10
2018-05-02T09:41:00.444Z,8.30
2018-05-02T09:42:00.459Z,7.90
2018-05-02T09:43:00.470Z,8.60
2018-05-02T09:44:00.517Z,9.00
2018-05-02T09:45:00.494Z,9.40
2018-05-02T09:46:00.507Z,9.20
2018-05-02T09:47:00.519Z,9.30
2018-05-02T09:48:00.532Z,8.70
2018-05-02T09:49:00.545Z,8.60
2018-05-02T09:50:00.558Z,8.80
2018-05-02T09:51:00.569Z,9.20
2018-05-02T09:52:00.677Z,8.30
2018-05-02T09:53:00.599Z,9.40
2018-05-02T09:54:00.611Z,9.80
2018-05-02T09:55:00.620Z,9.20
2018-05-02T09:56:00.632Z,8.30
2018-05-02T09:57:00.649Z,8.80
2018-05-02T09:58:00.663Z,9.60
2018-05-02T09:59:00.673Z,9.10
2018-05-02T10:00:00.684Z,9.20
2018-05-02T10:01:00.696Z,10.40
2018-05-02T10:02:00.709Z,9.60
2018-05-02T10:03:00.725Z,8.80
2018-05-02T10:04:00.734Z,10.60
2018-05-02T10:05:00.746Z,10.40
2018-05-02T10:06:00.762Z,10.40
2018-05-02T10:07:00.782Z,9.90
2018-05-02T10:08:00.791Z,9.20
2018-05-02T10:09:00.800Z,9.50
2018-05-02T10:10:00.809Z,8.70
2018-05-02T10:11:00.826Z,8.20
2018-05-02T10:12:00.839Z,7.80
2018-05-02T10:13:00.847Z,7.80
2018-05-02T10:14:00.860Z,8.60
2018-05-02T10:15:00.873Z,8.90
2018-05-02T10:16:00.925Z,7.50
2018-05-02T10:17:00.900Z,8.20
2018-05-02T10:18:00.917Z,8.60
2018-05-02T10:19:00.937Z,7.90
2018-05-02T10:20:00.947Z,7.00
2018-05-02T10:21:00.957Z,7.50
2018-05-02T10:22:00.968Z,6.90
2018-05-02T10:23:00.983Z,7.30
2018-05-02T10:24:00.998Z,6.80
2018-05-02T10:25:01.012Z,6.60
2018-05-02T10:26:01.028Z,6.80
2018-05-02T10:27:01.042Z,7.10
2018-05-02T10:28:01.056Z,6.80
2018-05-02T10:29:01.070Z,7.10
2018-05-02T10:30:01.087Z,7.80
2018-05-02T10:31:01.104Z,7.10
2018-05-02T10:32:01.120Z,8.20
2018-05-02T10:33:01.130Z,8.30
2018-05-02T10:34:01.145Z,9.00
2018-05-02T10:35:01.159Z,9.50
2018-05-02T10:36:01.179Z,10.10
2018-05-02T10:37:01.238Z,11.60
2018-05-02T10:38:01.205Z,12.00
2018-05-02T10:39:01.215Z,30.30
2018-05-02T10:40:01.227Z,139.00
2018-05-02T10:41:01.238Z,337.40
2018-05-02T10:42:01.250Z,583.70
2018-05-02T10:43:01.320Z,130.60
2018-05-02T10:44:01.273Z,100.00
2018-05-02T10:45:01.283Z,313.90
2018-05-02T10:46:01.294Z,458.50
2018-05-02T10:47:01.305Z,339.30
2018-05-02T10:48:01.316Z,68.70
2018-05-02T10:49:01.333Z,144.90
2018-05-02T10:50:01.344Z,202.80
2018-05-02T10:51:01.350Z,380.00
2018-05-02T10:52:01.365Z,614.90
2018-05-02T10:53:01.365Z,854.20
2018-05-02T10:54:01.375Z,912.70
2018-05-02T10:55:01.385Z,999.90
2018-05-02T10:56:01.426Z,880.50
2018-05-02T10:57:01.401Z,999.90
2018-05-02T10:58:01.410Z,999.90
2018-05-02T10:59:01.418Z,999.90
2018-05-02T11:00:01.427Z,999.90
2018-05-02T11:01:01.434Z,999.90
2018-05-02T11:02:01.449Z,999.90
2018-05-02T11:03:01.456Z,678.00
2018-05-02T11:04:01.463Z,53.70
2018-05-02T11:05:01.467Z,34.00
2018-05-02T11:06:01.476Z,14.20
2018-05-02T11:07:01.485Z,12.90
2018-05-02T11:08:01.494Z,22.60
2018-05-02T11:09:01.507Z,20.50
2018-05-02T11:10:01.517Z,18.20
2018-05-02T11:11:01.522Z,15.30
2018-05-02T11:12:01.537Z,20.50
2018-05-02T11:13:01.543Z,63.40
2018-05-02T11:14:01.553Z,84.80
2018-05-02T11:15:01.562Z,67.80
2018-05-02T11:16:01.572Z,84.90
2018-05-02T11:17:01.586Z,290.00
2018-05-02T11:18:01.599Z,326.10
2018-05-02T11:19:01.602Z,440.60
2018-05-02T11:20:01.664Z,401.00
2018-05-02T11:21:01.624Z,204.60
2018-05-02T11:22:01.740Z,251.90
2018-05-02T11:23:01.642Z,238.80
2018-05-02T11:24:01.652Z,144.40
2018-05-02T11:25:01.657Z,246.50
2018-05-02T11:26:01.664Z,322.50
2018-05-02T11:27:01.674Z,679.70
2018-05-02T11:28:01.684Z,891.70
2018-05-02T11:29:01.692Z,999.90
2018-05-02T11:30:01.717Z,999.90
2018-05-02T11:31:01.707Z,999.90
2018-05-02T11:32:01.714Z,999.90
2018-05-02T11:33:01.722Z,885.30
2018-05-02T11:34:01.730Z,999.90
2018-05-02T11:35:01.745Z,946.90
2018-05-02T11:36:01.747Z,345.20
2018-05-02T11:37:01.750Z,298.60
2018-05-02T11:38:01.755Z,121.00
2018-05-02T11:39:01.763Z,221.90
2018-05-02T11:40:01.769Z,197.70
2018-05-02T11:41:01.779Z,908.70
2018-05-02T11:42:01.785Z,962.70
2018-05-02T11:43:01.787Z,702.00
2018-05-02T11:44:01.794Z,377.80
2018-05-02T11:45:01.799Z,385.50
2018-05-02T11:46:01.805Z,118.00
2018-05-02T11:47:01.811Z,143.30
2018-05-02T11:48:01.817Z,53.20
2018-05-02T11:49:01.822Z,36.60
2018-05-02T11:50:01.826Z,31.10
2018-05-02T11:51:01.832Z,50.60
2018-05-02T11:52:01.836Z,31.00
2018-05-02T11:53:01.847Z,28.30
2018-05-02T11:54:01.851Z,35.60
2018-05-02T11:55:01.855Z,25.40
2018-05-02T11:56:01.863Z,67.90
2018-05-02T11:57:01.875Z,22.20
2018-05-02T11:58:01.865Z,19.00
2018-05-02T11:59:01.873Z,15.60
2018-05-02T12:00:01.875Z,14.50
2018-05-02T12:01:01.880Z,13.70
2018-05-02T12:02:01.882Z,13.30
2018-05-02T12:03:01.886Z,12.20
2018-05-02T12:04:01.892Z,14.40
2018-05-02T12:05:01.894Z,13.50
2018-05-02T12:06:01.899Z,18.60
2018-05-02T12:07:01.907Z,40.20
2018-05-02T12:08:01.911Z,86.40
2018-05-02T12:09:01.910Z,98.00
2018-05-02T12:10:01.922Z,283.70
2018-05-02T12:11:01.922Z,240.80
2018-05-02T12:12:01.924Z,134.80
2018-05-02T12:13:01.932Z,70.90
2018-05-02T12:14:01.937Z,32.80
2018-05-02T12:15:01.936Z,36.20
2018-05-02T12:16:01.998Z,89.30
2018-05-02T12:17:01.946Z,68.80
2018-05-02T12:18:01.947Z,35.90
2018-05-02T12:19:01.952Z,51.90
2018-05-02T12:20:01.956Z,46.30
2018-05-02T12:21:01.960Z,46.60
2018-05-02T12:22:01.963Z,999.90
2018-05-02T12:23:01.967Z,955.20
2018-05-02T12:24:01.971Z,930.70
2018-05-02T12:25:01.978Z,518.80
2018-05-02T12:26:01.982Z,817.90
2018-05-02T12:27:01.989Z,697.80
2018-05-02T12:28:01.987Z,483.90
2018-05-02T12:29:01.993Z,483.60
2018-05-02T12:30:02.001Z,290.80
2018-05-02T12:31:01.999Z,302.60
2018-05-02T12:32:02.001Z,417.30
2018-05-02T12:33:02.016Z,484.00
2018-05-02T12:34:02.016Z,381.30
2018-05-02T12:35:02.011Z,271.00
2018-05-02T12:36:02.015Z,480.50
2018-05-02T12:37:02.023Z,472.00
2018-05-02T12:38:02.029Z,107.20
2018-05-02T12:39:02.026Z,55.20
2018-05-02T12:40:02.038Z,173.20
2018-05-02T12:41:02.032Z,55.90
2018-05-02T12:42:02.036Z,140.10
2018-05-02T12:43:02.040Z,329.90
2018-05-02T12:44:02.066Z,279.30
2018-05-02T12:45:02.048Z,108.10
2018-05-02T12:46:02.049Z,73.60
2018-05-02T12:47:02.060Z,43.60
2018-05-02T12:48:02.062Z,39.30
2018-05-02T12:49:02.058Z,28.10
2018-05-02T12:50:02.062Z,19.70
2018-05-02T12:51:02.070Z,20.00
2018-05-02T12:52:02.073Z,12.70
2018-05-02T12:53:02.071Z,14.00
2018-05-02T12:54:02.073Z,12.50
2018-05-02T12:55:02.076Z,12.00
2018-05-02T12:56:02.208Z,18.30
2018-05-02T12:57:02.082Z,12.10